createdAt,value
2023-03-21T00:00:54.119Z,4.53
2023-03-21T00:03:22.310Z,4.40
2023-03-21T00:05:53.862Z,3.90
2023-03-21T00:11:02.623Z,3.70
2023-03-21T00:13:34.175Z,4.22
2023-03-21T00:16:14.936Z,4.07
2023-03-21T00:18:53.146Z,4.30
2023-03-21T00:21:41.031Z,3.90
2023-03-21T00:24:10.489Z,4.07
2023-03-21T00:26:41.361Z,4.95
2023-03-21T00:29:09.972Z,4.60
2023-03-21T00:31:39.150Z,5.07
2023-03-21T00:34:07.396Z,5.18
2023-03-21T00:36:35.371Z,4.65
2023-03-21T00:39:04.265Z,4.53
2023-03-21T00:41:44.316Z,4.65
2023-03-21T00:44:16.194Z,5.30
2023-03-21T00:46:57.068Z,4.57
2023-03-21T00:49:37.959Z,4.80
2023-03-21T00:52:17.099Z,4.90
2023-03-21T00:54:50.885Z,5.15
2023-03-21T00:57:22.023Z,4.68
2023-03-21T00:59:54.934Z,5.22
2023-03-21T01:02:26.973Z,5.03
2023-03-21T01:04:55.291Z,5.50
2023-03-21T01:07:23.277Z,4.60
2023-03-21T01:09:51.580Z,4.70
2023-03-21T01:12:19.938Z,4.57
2023-03-21T01:14:48.414Z,4.43
2023-03-21T01:17:16.496Z,4.18
2023-03-21T01:19:51.591Z,4.30
2023-03-21T01:22:22.701Z,4.25
2023-03-21T01:24:55.408Z,4.32
2023-03-21T01:27:28.953Z,4.00
2023-03-21T01:29:57.718Z,4.43
2023-03-21T01:32:26.223Z,4.53
2023-03-21T01:34:54.837Z,3.53
2023-03-21T01:37:26.524Z,4.60
2023-03-21T01:39:57.087Z,4.22
2023-03-21T01:42:27.443Z,3.88
2023-03-21T01:45:05.418Z,4.32
2023-03-21T01:47:47.215Z,5.18
2023-03-21T01:50:26.060Z,4.03
2023-03-21T01:53:14.280Z,4.85
2023-03-21T01:55:42.704Z,4.40
2023-03-21T01:58:22.359Z,4.63
2023-03-21T04:47:48.753Z,4.22
2023-03-21T04:50:17.403Z,4.45
2023-03-21T04:52:45.245Z,4.00
2023-03-21T04:55:13.622Z,3.65
2023-03-21T04:57:41.639Z,4.63
2023-03-21T05:00:14.726Z,4.30
2023-03-21T05:05:38.777Z,4.10
2023-03-21T05:08:07.618Z,3.97
2023-03-21T05:10:35.923Z,4.18
2023-03-21T05:13:03.935Z,4.05
2023-03-21T05:15:34.025Z,4.57
2023-03-21T05:18:11.685Z,3.72
2023-03-21T05:20:56.682Z,4.40
2023-03-21T05:23:25.801Z,4.57
2023-03-21T05:25:54.017Z,4.50
2023-03-21T05:28:36.346Z,4.20
2023-03-21T05:31:06.311Z,3.72
2023-03-21T05:33:34.666Z,4.03
2023-03-21T05:36:02.978Z,3.42
2023-03-21T05:38:33.912Z,4.38
2023-03-21T05:41:02.180Z,3.75
2023-03-21T05:43:31.804Z,3.83
2023-03-21T05:45:59.809Z,4.60
2023-03-21T05:48:30.403Z,4.03
2023-03-21T05:51:10.255Z,3.45
2023-03-21T05:53:38.298Z,4.95
2023-03-21T05:56:07.141Z,3.60
2023-03-21T05:58:47.376Z,4.77
2023-03-21T06:01:18.445Z,3.63
2023-03-21T06:03:55.143Z,4.32
2023-03-21T06:06:24.884Z,3.65
2023-03-21T06:08:55.736Z,4.20
2023-03-21T06:11:28.243Z,4.20
2023-03-21T06:14:12.822Z,3.97
2023-03-21T06:16:41.736Z,4.20
2023-03-21T06:19:09.758Z,3.90
2023-03-21T06:21:46.029Z,4.05
2023-03-21T06:24:14.217Z,4.13
2023-03-21T06:26:43.639Z,3.95
2023-03-21T06:29:12.076Z,4.10
2023-03-21T06:31:43.918Z,4.03
2023-03-21T06:34:12.205Z,3.90
2023-03-21T06:36:40.159Z,4.10
2023-03-21T06:39:08.973Z,3.85
2023-03-21T06:41:40.035Z,3.80
2023-03-21T06:44:08.438Z,3.75
2023-03-21T06:46:45.096Z,2.95
2023-03-21T06:49:18.106Z,3.75
2023-03-21T06:51:46.147Z,4.55
2023-03-21T06:54:19.188Z,3.40
2023-03-21T06:57:13.820Z,3.75
2023-03-21T06:59:42.531Z,3.45
2023-03-21T07:02:15.335Z,3.75
2023-03-21T07:04:49.572Z,3.85
2023-03-21T07:07:26.514Z,3.65
2023-03-21T07:09:54.544Z,5.53
2023-03-21T07:12:23.782Z,5.97
2023-03-21T07:15:21.338Z,6.28
2023-03-21T07:17:49.519Z,4.18
2023-03-21T07:20:17.853Z,4.32
2023-03-21T07:22:46.439Z,4.13
2023-03-21T07:25:17.692Z,3.78
2023-03-21T07:27:46.861Z,4.30
2023-03-21T07:30:15.565Z,3.47
2023-03-21T07:32:43.778Z,3.55
2023-03-21T07:35:14.327Z,3.42
2023-03-21T07:37:43.454Z,3.95
2023-03-21T07:40:14.403Z,4.45
2023-03-21T07:42:42.925Z,3.75
2023-03-21T07:45:19.867Z,3.60
2023-03-21T07:47:49.869Z,4.28
2023-03-21T07:50:18.472Z,3.65
2023-03-21T07:52:46.752Z,3.30
2023-03-21T07:55:14.840Z,4.00
2023-03-21T07:57:42.803Z,3.90
2023-03-21T08:00:11.364Z,4.88
2023-03-21T08:02:43.517Z,3.15
2023-03-21T08:05:12.282Z,3.20
2023-03-21T08:07:40.178Z,3.55
2023-03-21T08:10:09.087Z,3.72
2023-03-21T08:12:37.461Z,4.22
2023-03-21T08:15:06.052Z,3.75
2023-03-21T08:17:34.060Z,3.20
2023-03-21T08:20:01.978Z,3.50
2023-03-21T08:22:29.992Z,3.17
2023-03-21T08:24:57.913Z,3.65
2023-03-21T08:27:26.074Z,3.08
2023-03-21T08:29:53.973Z,3.17
2023-03-21T08:32:29.409Z,3.55
2023-03-21T08:35:02.675Z,3.25
2023-03-21T08:37:31.543Z,3.38
2023-03-21T08:40:02.777Z,3.00
2023-03-21T08:42:31.664Z,3.13
2023-03-21T08:44:59.801Z,3.97
2023-03-21T08:47:27.655Z,2.92
2023-03-21T08:49:58.985Z,4.10
2023-03-21T08:54:56.240Z,4.70
2023-03-21T08:57:25.732Z,3.63
2023-03-21T08:59:53.798Z,4.05
2023-03-21T09:02:22.492Z,3.88
2023-03-21T09:04:53.358Z,3.33
2023-03-21T09:07:22.466Z,3.83
2023-03-21T09:10:02.999Z,3.90
2023-03-21T09:12:42.170Z,4.33
2023-03-21T09:15:12.497Z,3.78
2023-03-21T09:17:44.791Z,4.80
2023-03-21T09:20:19.190Z,4.18
2023-03-21T09:22:48.898Z,4.57
2023-03-21T09:25:18.091Z,4.15
2023-03-21T09:27:46.464Z,3.95
2023-03-21T09:30:19.140Z,3.92
2023-03-21T09:32:48.952Z,4.65
2023-03-21T09:35:19.013Z,3.85
2023-03-21T09:37:50.593Z,3.83
2023-03-21T09:40:42.227Z,4.75
2023-03-21T09:46:28.609Z,4.50
2023-03-21T09:49:35.101Z,3.65
2023-03-21T09:52:20.810Z,4.85
2023-03-21T09:54:49.444Z,4.75
2023-03-21T09:57:42.533Z,4.55
2023-03-21T10:00:38.430Z,5.18
2023-03-21T10:03:18.070Z,5.18
2023-03-21T10:05:47.184Z,4.47
2023-03-21T10:08:26.456Z,5.25
2023-03-21T10:11:05.433Z,4.70
2023-03-21T10:13:45.196Z,4.30
2023-03-21T10:16:19.815Z,5.10
2023-03-21T10:18:48.148Z,4.32
2023-03-21T10:21:56.536Z,4.65
2023-03-21T10:24:23.248Z,4.68
2023-03-21T10:26:52.455Z,4.30
2023-03-21T10:29:31.246Z,4.90
2023-03-21T10:31:59.116Z,4.50
2023-03-21T10:34:47.256Z,4.32
2023-03-21T10:37:17.309Z,4.10
2023-03-21T10:39:48.583Z,3.92
2023-03-21T10:42:29.891Z,2.97
2023-03-21T10:44:58.163Z,3.08
2023-03-21T10:47:28.125Z,3.13
2023-03-21T10:50:07.389Z,3.78
2023-03-21T10:52:37.833Z,3.92
2023-03-21T10:55:32.272Z,3.67
2023-03-21T10:58:19.400Z,3.38
2023-03-21T11:00:48.027Z,2.95
2023-03-21T11:03:31.617Z,3.25
2023-03-21T11:06:22.664Z,3.63
2023-03-21T11:08:56.654Z,3.97
2023-03-21T11:11:33.783Z,3.50
2023-03-21T11:14:07.321Z,4.25
2023-03-21T11:16:45.362Z,3.35
2023-03-21T11:19:34.405Z,3.65
2023-03-21T11:22:15.158Z,4.72
2023-03-21T11:24:44.770Z,3.83
2023-03-21T11:27:12.780Z,3.83
2023-03-21T11:29:45.335Z,3.17
2023-03-21T11:32:38.282Z,3.30
2023-03-21T11:35:21.536Z,3.53
2023-03-21T11:37:57.477Z,4.22
2023-03-21T11:40:25.897Z,4.88
2023-03-21T11:42:59.828Z,4.05
2023-03-21T11:45:37.133Z,5.07
2023-03-21T11:48:13.870Z,4.00
2023-03-21T11:50:45.708Z,3.58
2023-03-21T11:53:41.877Z,4.60
2023-03-21T11:56:30.375Z,4.70
2023-03-21T11:59:07.359Z,4.10
2023-03-21T12:01:39.682Z,4.25
2023-03-21T12:04:29.329Z,3.67
2023-03-21T12:07:12.448Z,4.38
2023-03-21T12:10:11.337Z,3.28
2023-03-21T12:12:52.239Z,3.53
2023-03-21T12:15:20.059Z,3.70
2023-03-21T12:18:06.120Z,4.13
2023-03-21T12:20:42.591Z,3.63
2023-03-21T12:23:41.678Z,3.63
2023-03-21T12:26:09.929Z,4.30
2023-03-21T12:28:49.573Z,4.25
2023-03-21T12:31:48.786Z,3.92
2023-03-21T12:34:29.655Z,3.88
2023-03-21T12:37:35.049Z,4.43
2023-03-21T12:40:18.219Z,4.05
2023-03-21T12:42:52.520Z,4.20
2023-03-21T12:45:24.720Z,4.57
2023-03-21T12:48:00.878Z,4.57
2023-03-21T12:50:37.991Z,3.80
2023-03-21T12:53:25.707Z,5.45
2023-03-21T12:55:55.621Z,3.85
2023-03-21T12:58:25.565Z,4.72
2023-03-21T13:01:01.644Z,4.82
2023-03-21T13:03:40.630Z,3.50
2023-03-21T13:06:11.274Z,4.13
2023-03-21T13:08:55.580Z,3.97
2023-03-21T13:11:29.516Z,3.92
2023-03-21T13:14:27.817Z,5.38
2023-03-21T13:17:20.738Z,4.07
2023-03-21T13:19:56.426Z,4.15
2023-03-21T13:22:27.504Z,4.68
2023-03-21T13:25:07.775Z,3.88
2023-03-21T13:27:37.687Z,4.68
2023-03-21T13:30:21.963Z,3.92
2023-03-21T13:32:52.162Z,4.05
2023-03-21T13:35:37.970Z,5.05
2023-03-21T13:38:17.444Z,3.95
2023-03-21T13:41:06.327Z,5.20
2023-03-21T13:43:42.466Z,4.38
2023-03-21T13:46:16.404Z,4.18
2023-03-21T13:49:10.390Z,5.20
2023-03-21T13:51:42.299Z,4.30
2023-03-21T13:54:22.158Z,4.82
2023-03-21T13:56:53.685Z,4.18
2023-03-21T13:59:38.751Z,4.63
2023-03-21T14:02:29.725Z,3.85
2023-03-21T14:05:06.410Z,3.65
2023-03-21T14:07:35.615Z,3.88
2023-03-21T14:10:10.632Z,4.15
2023-03-21T14:12:41.604Z,3.65
2023-03-21T14:15:19.477Z,4.55
2023-03-21T14:18:16.315Z,4.55
2023-03-21T14:21:02.169Z,3.47
2023-03-21T14:23:32.982Z,4.18
2023-03-21T14:26:01.441Z,3.95
2023-03-21T14:28:33.672Z,4.22
2023-03-21T14:31:02.428Z,4.15
2023-03-21T14:33:37.798Z,4.03
2023-03-21T14:36:09.051Z,4.40
2023-03-21T14:41:06.303Z,3.80
2023-03-21T14:43:34.964Z,3.50
2023-03-21T14:46:03.293Z,3.60
2023-03-21T14:48:33.650Z,3.95
2023-03-21T14:51:09.302Z,3.90
2023-03-21T14:53:40.358Z,3.33
2023-03-21T14:56:18.540Z,3.70
2023-03-21T14:58:48.429Z,3.10
2023-03-21T15:01:42.819Z,2.97
2023-03-21T15:04:13.831Z,3.35
2023-03-21T15:07:01.934Z,3.65
2023-03-21T15:09:33.694Z,3.13
2023-03-21T15:12:02.245Z,3.75
2023-03-21T15:14:35.516Z,2.90
2023-03-21T15:17:05.570Z,2.60
2023-03-21T15:19:36.041Z,2.97
2023-03-21T15:22:24.471Z,3.05
2023-03-21T15:24:54.795Z,3.47
2023-03-21T15:27:25.270Z,3.38
2023-03-21T15:29:54.468Z,4.35
2023-03-21T15:32:25.030Z,2.97
2023-03-21T15:34:55.302Z,3.20
2023-03-21T15:37:33.624Z,3.53
2023-03-21T15:40:23.092Z,3.38
2023-03-21T15:42:51.697Z,3.08
2023-03-21T15:45:27.432Z,3.25
2023-03-21T15:48:16.564Z,3.15
2023-03-21T15:50:52.074Z,3.10
2023-03-21T15:53:20.853Z,2.53
2023-03-21T15:55:57.238Z,2.85
2023-03-21T15:58:27.890Z,2.63
2023-03-21T16:00:58.208Z,2.43
2023-03-21T16:03:28.982Z,2.50
2023-03-21T16:06:15.086Z,2.95
2023-03-21T16:08:49.340Z,2.72
2023-03-21T16:11:23.852Z,2.58
2023-03-21T16:13:52.618Z,2.33
2023-03-21T16:16:26.765Z,2.50
2023-03-21T16:18:58.058Z,2.97
2023-03-21T16:21:28.682Z,2.55
2023-03-21T16:23:58.659Z,2.60
2023-03-21T16:26:32.472Z,2.33
2023-03-21T16:29:00.792Z,2.30
2023-03-21T16:31:37.494Z,2.58
2023-03-21T16:34:05.995Z,2.20
2023-03-21T16:36:37.387Z,2.30
2023-03-21T16:39:22.700Z,2.30
2023-03-21T16:41:51.703Z,2.33
2023-03-21T16:44:20.364Z,2.72
2023-03-21T16:46:48.855Z,2.10
2023-03-21T16:49:26.595Z,2.17
2023-03-21T16:51:56.017Z,2.67
2023-03-21T16:54:24.332Z,2.00
2023-03-21T16:56:56.120Z,1.83
2023-03-21T16:59:24.918Z,2.00
2023-03-21T17:01:52.973Z,2.03
2023-03-21T17:04:21.056Z,2.10
2023-03-21T17:06:52.365Z,2.53
2023-03-21T17:09:23.923Z,1.67
2023-03-21T17:14:21.746Z,1.70
2023-03-21T17:16:49.917Z,1.85
2023-03-21T17:19:20.653Z,2.38
2023-03-21T17:21:48.821Z,2.40
2023-03-21T17:24:17.130Z,2.25
2023-03-21T17:26:45.542Z,2.90
2023-03-21T17:29:14.570Z,2.80
2023-03-21T17:31:42.912Z,2.65
2023-03-21T17:34:11.576Z,1.98
2023-03-21T17:36:43.660Z,2.25
2023-03-21T17:39:19.501Z,2.30
2023-03-21T17:41:52.210Z,2.20
2023-03-21T17:44:21.392Z,2.05
2023-03-21T17:46:51.673Z,1.80
2023-03-21T17:49:20.350Z,1.70
2023-03-21T17:51:48.303Z,1.83
2023-03-21T17:54:16.313Z,1.77
2023-03-21T17:56:44.375Z,1.52
2023-03-21T17:59:14.621Z,1.50
2023-03-21T18:01:43.234Z,1.75
2023-03-21T18:04:13.627Z,1.75
2023-03-21T18:06:41.765Z,1.55
2023-03-21T18:09:12.498Z,1.73
2023-03-21T18:11:41.628Z,2.00
2023-03-21T18:14:17.701Z,1.63
2023-03-21T18:16:49.074Z,1.85
2023-03-21T18:19:17.452Z,1.70
2023-03-21T18:21:46.130Z,2.28
2023-03-21T18:24:15.211Z,2.05
2023-03-21T18:26:44.345Z,2.40
2023-03-21T18:30:15.941Z,2.28
2023-03-21T18:32:07.911Z,2.20
2023-03-21T18:34:40.037Z,2.40
2023-03-21T18:37:09.093Z,1.65
2023-03-21T18:39:38.511Z,2.22
2023-03-21T18:42:06.842Z,1.90
2023-03-21T18:44:39.459Z,2.25
2023-03-21T18:47:08.694Z,2.63
2023-03-21T18:52:27.581Z,2.50
2023-03-21T18:54:55.802Z,2.27
2023-03-21T18:57:36.340Z,2.35
2023-03-21T19:00:13.350Z,2.67
2023-03-21T19:02:47.038Z,2.22
2023-03-21T19:05:17.141Z,2.13
2023-03-21T19:07:45.865Z,2.45
2023-03-21T19:10:19.587Z,2.40
2023-03-21T19:12:49.748Z,2.35
2023-03-21T19:15:19.872Z,3.15
2023-03-21T19:20:38.214Z,2.80
2023-03-21T19:23:08.755Z,2.75
2023-03-21T19:25:37.609Z,1.70
2023-03-21T19:28:05.818Z,2.20
2023-03-21T19:30:34.167Z,2.60
2023-03-21T19:33:02.327Z,2.00
2023-03-21T19:35:31.319Z,2.13
2023-03-21T19:37:59.530Z,2.33
2023-03-21T19:40:27.557Z,1.65
2023-03-21T19:42:57.557Z,1.80
2023-03-21T19:45:26.251Z,2.13
2023-03-21T19:47:54.034Z,2.40
2023-03-21T19:53:14.176Z,1.92
2023-03-21T19:55:42.425Z,2.22
2023-03-21T19:58:10.459Z,1.83
2023-03-21T20:00:39.328Z,2.20
2023-03-21T20:03:09.320Z,2.10
2023-03-21T20:05:37.405Z,1.77
2023-03-21T20:08:09.827Z,2.15
2023-03-21T20:10:38.546Z,2.50
2023-03-21T20:13:06.854Z,1.85
2023-03-21T20:15:45.695Z,2.15
2023-03-21T20:18:16.471Z,2.47
2023-03-21T20:20:44.706Z,2.50
2023-03-21T20:23:16.008Z,2.05
2023-03-21T20:25:47.578Z,2.40
2023-03-21T20:28:24.615Z,1.83
2023-03-21T20:31:00.990Z,2.65
2023-03-21T20:33:30.201Z,2.38
2023-03-21T20:36:38.285Z,2.30
2023-03-21T20:38:53.968Z,2.20
2023-03-21T20:41:22.269Z,2.47
2023-03-21T20:46:38.553Z,2.80
2023-03-21T20:49:07.175Z,2.45
2023-03-21T20:54:24.242Z,2.55
2023-03-21T20:56:52.178Z,2.55
2023-03-21T20:59:26.621Z,3.13
2023-03-21T21:01:59.057Z,2.50
2023-03-21T21:04:52.742Z,2.28
2023-03-21T21:07:21.370Z,2.53
2023-03-21T21:09:50.491Z,2.85
2023-03-21T21:12:20.060Z,2.72
2023-03-21T21:14:48.431Z,2.42
2023-03-21T21:17:33.977Z,3.42
2023-03-21T21:20:19.187Z,2.67
2023-03-21T21:23:00.476Z,3.05
2023-03-21T21:25:30.804Z,2.40
2023-03-21T21:27:58.777Z,2.65
2023-03-21T21:30:27.294Z,2.88
2023-03-21T21:32:58.266Z,3.10
2023-03-21T21:35:26.652Z,2.47
2023-03-21T21:37:54.862Z,2.95
2023-03-21T21:40:23.626Z,3.60
2023-03-21T21:42:51.890Z,2.70
2023-03-21T21:45:20.477Z,3.28
2023-03-21T21:47:48.464Z,3.20
2023-03-21T21:50:16.593Z,3.05
2023-03-21T21:52:53.032Z,3.20
2023-03-21T21:55:21.700Z,3.40
2023-03-21T21:57:51.189Z,3.25
2023-03-21T22:00:20.582Z,3.20
2023-03-21T22:02:48.934Z,3.60
2023-03-21T22:05:17.223Z,3.90
2023-03-21T22:07:45.704Z,3.30
2023-03-21T22:10:14.194Z,3.03
2023-03-21T22:12:42.487Z,2.92
2023-03-21T22:15:14.146Z,3.90
2023-03-21T22:17:42.622Z,3.53
2023-03-21T22:20:12.362Z,3.40
2023-03-21T22:22:40.736Z,4.10
2023-03-21T22:25:11.025Z,3.97
2023-03-21T22:27:38.986Z,3.72
2023-03-21T22:30:11.453Z,3.85
2023-03-21T22:32:39.899Z,3.63
2023-03-21T22:35:09.311Z,3.85
2023-03-21T22:37:39.887Z,3.58
2023-03-21T22:40:11.041Z,3.75
2023-03-21T22:42:40.009Z,4.90
2023-03-21T22:45:10.534Z,3.53
2023-03-21T22:47:38.911Z,4.35
2023-03-21T22:50:07.805Z,4.45
2023-03-21T22:52:36.135Z,3.88
2023-03-21T22:55:03.982Z,4.03
2023-03-21T22:57:31.852Z,3.95
2023-03-21T22:59:59.779Z,3.58
2023-03-21T23:02:28.052Z,4.03
2023-03-21T23:04:56.407Z,4.07
2023-03-21T23:07:24.321Z,3.65
2023-03-21T23:09:52.510Z,3.75
2023-03-21T23:12:22.620Z,3.50
2023-03-21T23:14:51.080Z,3.67
2023-03-21T23:17:19.024Z,3.78
2023-03-21T23:19:47.026Z,3.90
2023-03-21T23:22:17.658Z,3.88
2023-03-21T23:24:45.667Z,3.83
2023-03-21T23:27:14.582Z,4.55
2023-03-21T23:29:44.125Z,5.13
2023-03-21T23:32:12.411Z,4.00
2023-03-21T23:34:41.020Z,4.93
2023-03-21T23:37:09.672Z,4.43
2023-03-21T23:39:38.109Z,5.22
2023-03-21T23:42:08.072Z,4.82
2023-03-21T23:44:38.406Z,5.30
2023-03-21T23:47:06.695Z,4.20
2023-03-21T23:49:37.762Z,5.40
2023-03-21T23:52:06.277Z,4.50
2023-03-21T23:54:36.705Z,5.13
2023-03-21T23:57:04.670Z,4.38
2023-03-21T23:59:32.358Z,4.45
